sensor_id;sensor_type;location;lat;lon;timestamp;pressure;altitude;pressure_sealevel;temperature;humidity
70488;BME280;57976;48.174;16.370;2024-03-02T00:00:30;98447.30;;;9.10;100.00
70488;BME280;57976;48.174;16.370;2024-03-02T00:02:35;98450.80;;;9.13;100.00
70488;BME280;57976;48.174;16.370;2024-03-02T00:04:50;98455.88;;;9.12;100.00
70488;BME280;57976;48.174;16.370;2024-03-02T00:06:55;98460.25;;;9.11;100.00
70488;BME280;57976;48.174;16.370;2024-03-02T00:09:00;98462.27;;;9.10;100.00
70488;BME280;57976;48.174;16.370;2024-03-02T00:11:05;98459.27;;;9.03;100.00
70488;BME280;57976;48.174;16.370;2024-03-02T00:13:10;98462.84;;;9.01;100.00
70488;BME280;57976;48.174;16.370;2024-03-02T00:15:36;98457.97;;;9.00;100.00
70488;BME280;57976;48.174;16.370;2024-03-02T00:17:47;98451.52;;;8.99;100.00
70488;BME280;57976;48.174;16.370;2024-03-02T00:20:00;98452.99;;;9.00;100.00
70488;BME280;57976;48.174;16.370;2024-03-02T00:22:05;98449.91;;;8.98;100.00
70488;BME280;57976;48.174;16.370;2024-03-02T00:24:20;98456.66;;;8.99;100.00
70488;BME280;57976;48.174;16.370;2024-03-02T00:26:25;98458.75;;;8.99;100.00
70488;BME280;57976;48.174;16.370;2024-03-02T00:28:31;98458.73;;;8.96;100.00
70488;BME280;57976;48.174;16.370;2024-03-02T00:30:50;98454.70;;;8.94;100.00
70488;BME280;57976;48.174;16.370;2024-03-02T00:32:56;98454.45;;;8.94;100.00
70488;BME280;57976;48.174;16.370;2024-03-02T00:35:01;98452.88;;;8.91;100.00
70488;BME280;57976;48.174;16.370;2024-03-02T00:37:09;98449.33;;;8.89;100.00
70488;BME280;57976;48.174;16.370;2024-03-02T00:39:18;98446.02;;;8.89;100.00
70488;BME280;57976;48.174;16.370;2024-03-02T00:41:26;98449.20;;;8.89;100.00
70488;BME280;57976;48.174;16.370;2024-03-02T00:44:00;98450.34;;;8.90;100.00
70488;BME280;57976;48.174;16.370;2024-03-02T00:46:05;98452.43;;;8.90;100.00
70488;BME280;57976;48.174;16.370;2024-03-02T00:48:10;98449.41;;;8.90;100.00
70488;BME280;57976;48.174;16.370;2024-03-02T00:50:16;98449.90;;;8.88;100.00
70488;BME280;57976;48.174;16.370;2024-03-02T00:52:33;98449.83;;;8.87;100.00
70488;BME280;57976;48.174;16.370;2024-03-02T00:54:38;98447.59;;;8.87;100.00
70488;BME280;57976;48.174;16.370;2024-03-02T00:56:44;98444.15;;;8.87;100.00
70488;BME280;57976;48.174;16.370;2024-03-02T00:58:48;98443.53;;;8.86;100.00
70488;BME280;57976;48.174;16.370;2024-03-02T01:00:55;98440.00;;;8.89;100.00
70488;BME280;57976;48.174;16.370;2024-03-02T01:03:00;98441.14;;;8.93;100.00
70488;BME280;57976;48.174;16.370;2024-03-02T01:05:05;98437.17;;;8.92;100.00
70488;BME280;57976;48.174;16.370;2024-03-02T01:07:10;98439.84;;;8.90;100.00
70488;BME280;57976;48.174;16.370;2024-03-02T01:09:15;98438.85;;;8.90;100.00
70488;BME280;57976;48.174;16.370;2024-03-02T01:11:22;98441.27;;;8.90;100.00
70488;BME280;57976;48.174;16.370;2024-03-02T01:13:28;98434.90;;;8.89;100.00
70488;BME280;57976;48.174;16.370;2024-03-02T01:15:33;98434.33;;;8.90;100.00
70488;BME280;57976;48.174;16.370;2024-03-02T01:17:41;98438.04;;;8.90;100.00
70488;BME280;57976;48.174;16.370;2024-03-02T01:19:46;98439.61;;;8.88;100.00
70488;BME280;57976;48.174;16.370;2024-03-02T01:21:51;98439.64;;;8.86;100.00
70488;BME280;57976;48.174;16.370;2024-03-02T01:23:55;98438.97;;;8.84;100.00
70488;BME280;57976;48.174;16.370;2024-03-02T01:26:00;98437.55;;;8.82;100.00
70488;BME280;57976;48.174;16.370;2024-03-02T01:28:05;98438.34;;;8.77;100.00
70488;BME280;57976;48.174;16.370;2024-03-02T01:30:12;98440.86;;;8.70;100.00
70488;BME280;57976;48.174;16.370;2024-03-02T01:32:20;98439.63;;;8.67;100.00
70488;BME280;57976;48.174;16.370;2024-03-02T01:34:26;98442.73;;;8.64;100.00
70488;BME280;57976;48.174;16.370;2024-03-02T01:36:31;98443.71;;;8.61;100.00
70488;BME280;57976;48.174;16.370;2024-03-02T01:38:36;98446.75;;;8.61;100.00
70488;BME280;57976;48.174;16.370;2024-03-02T01:40:43;98447.80;;;8.62;100.00
70488;BME280;57976;48.174;16.370;2024-03-02T01:42:50;98448.73;;;8.64;100.00
70488;BME280;57976;48.174;16.370;2024-03-02T01:44:58;98446.15;;;8.65;100.00
70488;BME280;57976;48.174;16.370;2024-03-02T01:47:03;98443.34;;;8.65;100.00
70488;BME280;57976;48.174;16.370;2024-03-02T01:49:08;98442.97;;;8.65;100.00
70488;BME280;57976;48.174;16.370;2024-03-02T01:51:13;98437.75;;;8.65;100.00
70488;BME280;57976;48.174;16.370;2024-03-02T01:53:18;98436.52;;;8.65;100.00
70488;BME280;57976;48.174;16.370;2024-03-02T01:55:22;98437.01;;;8.66;100.00
70488;BME280;57976;48.174;16.370;2024-03-02T01:57:27;98435.09;;;8.71;100.00
70488;BME280;57976;48.174;16.370;2024-03-02T01:59:32;98436.36;;;8.73;100.00
70488;BME280;57976;48.174;16.370;2024-03-02T02:01:38;98432.88;;;8.75;100.00
70488;BME280;57976;48.174;16.370;2024-03-02T02:03:42;98429.16;;;8.78;100.00
70488;BME280;57976;48.174;16.370;2024-03-02T02:05:51;98427.73;;;8.77;100.00
70488;BME280;57976;48.174;16.370;2024-03-02T02:07:55;98428.91;;;8.79;100.00
70488;BME280;57976;48.174;16.370;2024-03-02T02:10:00;98424.73;;;8.79;100.00
70488;BME280;57976;48.174;16.370;2024-03-02T02:12:06;98424.92;;;8.82;100.00
70488;BME280;57976;48.174;16.370;2024-03-02T02:14:11;98422.08;;;8.80;100.00
70488;BME280;57976;48.174;16.370;2024-03-02T02:16:17;98416.20;;;8.77;100.00
70488;BME280;57976;48.174;16.370;2024-03-02T02:18:21;98413.21;;;8.77;100.00
70488;BME280;57976;48.174;16.370;2024-03-02T02:20:29;98413.91;;;8.78;100.00
70488;BME280;57976;48.174;16.370;2024-03-02T02:22:36;98413.73;;;8.79;100.00
70488;BME280;57976;48.174;16.370;2024-03-02T02:24:46;98407.78;;;8.80;100.00
70488;BME280;57976;48.174;16.370;2024-03-02T02:26:50;98408.63;;;8.80;100.00
70488;BME280;57976;48.174;16.370;2024-03-02T02:28:55;98406.02;;;8.80;100.00
70488;BME280;57976;48.174;16.370;2024-03-02T02:31:03;98400.43;;;8.78;100.00
70488;BME280;57976;48.174;16.370;2024-03-02T02:33:09;98397.70;;;8.77;100.00
70488;BME280;57976;48.174;16.370;2024-03-02T02:35:14;98392.48;;;8.77;100.00
70488;BME280;57976;48.174;16.370;2024-03-02T02:37:21;98393.30;;;8.77;100.00
70488;BME280;57976;48.174;16.370;2024-03-02T02:39:26;98397.42;;;8.76;100.00
70488;BME280;57976;48.174;16.370;2024-03-02T02:41:31;98399.52;;;8.71;100.00
70488;BME280;57976;48.174;16.370;2024-03-02T02:43:35;98402.78;;;8.63;100.00
70488;BME280;57976;48.174;16.370;2024-03-02T02:45:40;98405.18;;;8.57;100.00
70488;BME280;57976;48.174;16.370;2024-03-02T02:47:45;98406.91;;;8.52;100.00
70488;BME280;57976;48.174;16.370;2024-03-02T02:49:50;98412.44;;;8.50;100.00
70488;BME280;57976;48.174;16.370;2024-03-02T02:51:55;98408.53;;;8.48;100.00
70488;BME280;57976;48.174;16.370;2024-03-02T02:53:59;98403.88;;;8.47;100.00
70488;BME280;57976;48.174;16.370;2024-03-02T02:56:07;98403.39;;;8.47;100.00
70488;BME280;57976;48.174;16.370;2024-03-02T02:58:12;98402.05;;;8.47;100.00
70488;BME280;57976;48.174;16.370;2024-03-02T03:00:18;98401.73;;;8.44;100.00
70488;BME280;57976;48.174;16.370;2024-03-02T03:02:23;98400.69;;;8.37;100.00
70488;BME280;57976;48.174;16.370;2024-03-02T03:04:28;98397.83;;;8.35;100.00
70488;BME280;57976;48.174;16.370;2024-03-02T03:06:33;98399.73;;;8.32;100.00
70488;BME280;57976;48.174;16.370;2024-03-02T03:08:41;98396.95;;;8.23;100.00
70488;BME280;57976;48.174;16.370;2024-03-02T03:10:46;98399.58;;;8.14;100.00
70488;BME280;57976;48.174;16.370;2024-03-02T03:12:51;98399.65;;;8.05;100.00
70488;BME280;57976;48.174;16.370;2024-03-02T03:14:59;98401.81;;;7.99;100.00
70488;BME280;57976;48.174;16.370;2024-03-02T03:17:07;98395.62;;;7.93;100.00
70488;BME280;57976;48.174;16.370;2024-03-02T03:19:12;98397.59;;;7.89;100.00
70488;BME280;57976;48.174;16.370;2024-03-02T03:21:19;98399.23;;;7.88;100.00
70488;BME280;57976;48.174;16.370;2024-03-02T03:23:24;98399.42;;;7.87;100.00
70488;BME280;57976;48.174;16.370;2024-03-02T03:25:29;98405.91;;;7.85;100.00
70488;BME280;57976;48.174;16.370;2024-03-02T03:27:36;98406.52;;;7.84;100.00
70488;BME280;57976;48.174;16.370;2024-03-02T03:29:41;98407.59;;;7.81;100.00
70488;BME280;57976;48.174;16.370;2024-03-02T03:31:49;98411.42;;;7.82;100.00
70488;BME280;57976;48.174;16.370;2024-03-02T03:33:53;98417.05;;;7.83;100.00
70488;BME280;57976;48.174;16.370;2024-03-02T03:35:58;98417.05;;;7.85;100.00
70488;BME280;57976;48.174;16.370;2024-03-02T03:38:03;98413.46;;;7.85;100.00
70488;BME280;57976;48.174;16.370;2024-03-02T03:40:10;98415.50;;;7.88;100.00
70488;BME280;57976;48.174;16.370;2024-03-02T03:42:15;98412.06;;;7.91;100.00
70488;BME280;57976;48.174;16.370;2024-03-02T03:44:20;98415.82;;;7.91;100.00
70488;BME280;57976;48.174;16.370;2024-03-02T03:46:27;98413.13;;;7.90;100.00
70488;BME280;57976;48.174;16.370;2024-03-02T03:48:35;98413.02;;;7.91;100.00
70488;BME280;57976;48.174;16.370;2024-03-02T03:50:40;98411.64;;;7.94;100.00
70488;BME280;57976;48.174;16.370;2024-03-02T03:52:45;98417.48;;;7.97;100.00
70488;BME280;57976;48.174;16.370;2024-03-02T03:54:52;98421.23;;;8.00;100.00
70488;BME280;57976;48.174;16.370;2024-03-02T03:56:57;98420.86;;;8.02;100.00
70488;BME280;57976;48.174;16.370;2024-03-02T03:59:01;98420.77;;;8.04;100.00
70488;BME280;57976;48.174;16.370;2024-03-02T04:01:06;98419.14;;;8.04;100.00
70488;BME280;57976;48.174;16.370;2024-03-02T04:03:11;98417.67;;;8.04;100.00
70488;BME280;57976;48.174;16.370;2024-03-02T04:05:18;98418.09;;;8.04;100.00
70488;BME280;57976;48.174;16.370;2024-03-02T04:07:23;98413.29;;;7.97;100.00
70488;BME280;57976;48.174;16.370;2024-03-02T04:09:32;98413.34;;;7.90;100.00
70488;BME280;57976;48.174;16.370;2024-03-02T04:11:36;98409.30;;;7.83;100.00
70488;BME280;57976;48.174;16.370;2024-03-02T04:13:42;98410.28;;;7.80;100.00
70488;BME280;57976;48.174;16.370;2024-03-02T04:15:47;98412.16;;;7.79;100.00
70488;BME280;57976;48.174;16.370;2024-03-02T04:17:52;98416.39;;;7.82;100.00
70488;BME280;57976;48.174;16.370;2024-03-02T04:20:00;98421.02;;;7.85;100.00
70488;BME280;57976;48.174;16.370;2024-03-02T04:22:05;98425.85;;;7.89;100.00
70488;BME280;57976;48.174;16.370;2024-03-02T04:24:22;98427.24;;;7.89;100.00
70488;BME280;57976;48.174;16.370;2024-03-02T04:26:28;98431.66;;;7.89;100.00
70488;BME280;57976;48.174;16.370;2024-03-02T04:28:32;98433.32;;;7.90;100.00
70488;BME280;57976;48.174;16.370;2024-03-02T04:30:37;98431.98;;;7.92;100.00
70488;BME280;57976;48.174;16.370;2024-03-02T04:32:45;98432.86;;;7.94;100.00
70488;BME280;57976;48.174;16.370;2024-03-02T04:34:50;98432.17;;;7.96;100.00
70488;BME280;57976;48.174;16.370;2024-03-02T04:36:55;98436.70;;;7.97;100.00
70488;BME280;57976;48.174;16.370;2024-03-02T04:39:00;98438.88;;;7.98;100.00
70488;BME280;57976;48.174;16.370;2024-03-02T04:41:08;98440.70;;;7.98;100.00
70488;BME280;57976;48.174;16.370;2024-03-02T04:43:13;98441.02;;;7.98;100.00
70488;BME280;57976;48.174;16.370;2024-03-02T04:45:18;98439.59;;;7.98;100.00
70488;BME280;57976;48.174;16.370;2024-03-02T04:47:22;98438.01;;;7.98;100.00
70488;BME280;57976;48.174;16.370;2024-03-02T04:49:27;98440.98;;;7.97;100.00
70488;BME280;57976;48.174;16.370;2024-03-02T04:51:32;98439.19;;;7.93;100.00
70488;BME280;57976;48.174;16.370;2024-03-02T04:53:37;98442.79;;;7.92;100.00
70488;BME280;57976;48.174;16.370;2024-03-02T04:55:42;98449.23;;;7.90;100.00
70488;BME280;57976;48.174;16.370;2024-03-02T04:57:47;98454.78;;;7.89;100.00
70488;BME280;57976;48.174;16.370;2024-03-02T04:59:51;98459.10;;;7.90;100.00
70488;BME280;57976;48.174;16.370;2024-03-02T05:01:59;98461.42;;;7.94;100.00
70488;BME280;57976;48.174;16.370;2024-03-02T05:04:06;98458.66;;;7.97;100.00
70488;BME280;57976;48.174;16.370;2024-03-02T05:06:11;98461.75;;;8.00;100.00
70488;BME280;57976;48.174;16.370;2024-03-02T05:08:15;98465.42;;;8.03;100.00
70488;BME280;57976;48.174;16.370;2024-03-02T05:10:20;98465.02;;;8.04;100.00
70488;BME280;57976;48.174;16.370;2024-03-02T05:12:25;98463.73;;;8.05;100.00
70488;BME280;57976;48.174;16.370;2024-03-02T05:14:39;98467.81;;;8.04;100.00
70488;BME280;57976;48.174;16.370;2024-03-02T05:16:44;98472.31;;;8.00;100.00
70488;BME280;57976;48.174;16.370;2024-03-02T05:18:49;98469.35;;;7.97;100.00
70488;BME280;57976;48.174;16.370;2024-03-02T05:20:54;98475.74;;;7.95;100.00
70488;BME280;57976;48.174;16.370;2024-03-02T05:22:58;98475.41;;;7.89;100.00
70488;BME280;57976;48.174;16.370;2024-03-02T05:25:04;98475.14;;;7.85;100.00
70488;BME280;57976;48.174;16.370;2024-03-02T05:27:09;98478.48;;;7.85;100.00
70488;BME280;57976;48.174;16.370;2024-03-02T05:29:15;98483.58;;;7.84;100.00
70488;BME280;57976;48.174;16.370;2024-03-02T05:31:19;98481.88;;;7.81;100.00
70488;BME280;57976;48.174;16.370;2024-03-02T05:33:25;98480.64;;;7.80;100.00
70488;BME280;57976;48.174;16.370;2024-03-02T05:35:29;98478.94;;;7.77;100.00
70488;BME280;57976;48.174;16.370;2024-03-02T05:37:34;98477.75;;;7.75;100.00
70488;BME280;57976;48.174;16.370;2024-03-02T05:39:39;98479.34;;;7.78;100.00
70488;BME280;57976;48.174;16.370;2024-03-02T05:41:43;98485.90;;;7.79;100.00
70488;BME280;57976;48.174;16.370;2024-03-02T05:43:48;98485.41;;;7.82;100.00
70488;BME280;57976;48.174;16.370;2024-03-02T05:45:53;98489.63;;;7.86;100.00
70488;BME280;57976;48.174;16.370;2024-03-02T05:47:59;98490.19;;;7.87;100.00
70488;BME280;57976;48.174;16.370;2024-03-02T05:50:05;98490.68;;;7.88;100.00
70488;BME280;57976;48.174;16.370;2024-03-02T05:52:10;98491.20;;;7.89;100.00
70488;BME280;57976;48.174;16.370;2024-03-02T05:54:17;98489.00;;;7.90;100.00
70488;BME280;57976;48.174;16.370;2024-03-02T05:56:27;98492.77;;;7.92;100.00
70488;BME280;57976;48.174;16.370;2024-03-02T05:58:32;98491.50;;;7.92;100.00
70488;BME280;57976;48.174;16.370;2024-03-02T06:00:38;98492.27;;;7.89;100.00
70488;BME280;57976;48.174;16.370;2024-03-02T06:02:43;98494.92;;;7.85;100.00
70488;BME280;57976;48.174;16.370;2024-03-02T06:04:49;98502.19;;;7.82;100.00
70488;BME280;57976;48.174;16.370;2024-03-02T06:06:54;98502.30;;;7.83;100.00
70488;BME280;57976;48.174;16.370;2024-03-02T06:09:01;98505.92;;;7.82;100.00
70488;BME280;57976;48.174;16.370;2024-03-02T06:11:06;98510.98;;;7.79;100.00
70488;BME280;57976;48.174;16.370;2024-03-02T06:13:11;98514.83;;;7.77;100.00
70488;BME280;57976;48.174;16.370;2024-03-02T06:15:15;98517.27;;;7.74;100.00
70488;BME280;57976;48.174;16.370;2024-03-02T06:17:20;98518.77;;;7.73;100.00
70488;BME280;57976;48.174;16.370;2024-03-02T06:19:25;98517.52;;;7.72;100.00
70488;BME280;57976;48.174;16.370;2024-03-02T06:21:30;98514.70;;;7.70;100.00
70488;BME280;57976;48.174;16.370;2024-03-02T06:23:34;98513.71;;;7.66;100.00
70488;BME280;57976;48.174;16.370;2024-03-02T06:25:42;98515.95;;;7.64;100.00
70488;BME280;57976;48.174;16.370;2024-03-02T06:27:47;98517.29;;;7.67;100.00
70488;BME280;57976;48.174;16.370;2024-03-02T06:29:52;98517.50;;;7.67;100.00
70488;BME280;57976;48.174;16.370;2024-03-02T06:31:57;98517.14;;;7.69;100.00
70488;BME280;57976;48.174;16.370;2024-03-02T06:34:04;98515.55;;;7.67;100.00
70488;BME280;57976;48.174;16.370;2024-03-02T06:36:09;98512.69;;;7.67;100.00
70488;BME280;57976;48.174;16.370;2024-03-02T06:38:14;98513.17;;;7.68;100.00
70488;BME280;57976;48.174;16.370;2024-03-02T06:40:19;98515.23;;;7.75;100.00
70488;BME280;57976;48.174;16.370;2024-03-02T06:42:23;98513.89;;;7.82;100.00
70488;BME280;57976;48.174;16.370;2024-03-02T06:44:30;98514.02;;;7.89;100.00
70488;BME280;57976;48.174;16.370;2024-03-02T06:46:35;98515.53;;;7.95;100.00
70488;BME280;57976;48.174;16.370;2024-03-02T06:48:39;98517.20;;;7.96;100.00
70488;BME280;57976;48.174;16.370;2024-03-02T06:50:44;98519.65;;;7.97;100.00
70488;BME280;57976;48.174;16.370;2024-03-02T06:52:49;98517.81;;;7.99;100.00
70488;BME280;57976;48.174;16.370;2024-03-02T06:54:57;98517.31;;;8.03;100.00
70488;BME280;57976;48.174;16.370;2024-03-02T06:57:06;98520.86;;;8.11;100.00
70488;BME280;57976;48.174;16.370;2024-03-02T06:59:11;98521.95;;;8.20;100.00
70488;BME280;57976;48.174;16.370;2024-03-02T07:01:15;98522.39;;;8.17;100.00
70488;BME280;57976;48.174;16.370;2024-03-02T07:03:20;98524.58;;;8.18;100.00
70488;BME280;57976;48.174;16.370;2024-03-02T07:05:25;98524.58;;;8.15;100.00
70488;BME280;57976;48.174;16.370;2024-03-02T07:07:29;98523.97;;;8.17;100.00
70488;BME280;57976;48.174;16.370;2024-03-02T07:09:34;98522.71;;;8.18;100.00
70488;BME280;57976;48.174;16.370;2024-03-02T07:11:39;98523.67;;;8.20;100.00
70488;BME280;57976;48.174;16.370;2024-03-02T07:13:47;98523.80;;;8.22;100.00
70488;BME280;57976;48.174;16.370;2024-03-02T07:15:54;98524.89;;;8.15;100.00
70488;BME280;57976;48.174;16.370;2024-03-02T07:17:59;98528.02;;;8.12;100.00
70488;BME280;57976;48.174;16.370;2024-03-02T07:20:05;98525.92;;;8.13;100.00
70488;BME280;57976;48.174;16.370;2024-03-02T07:22:14;98530.58;;;8.18;100.00
70488;BME280;57976;48.174;16.370;2024-03-02T07:24:18;98528.25;;;8.21;100.00
70488;BME280;57976;48.174;16.370;2024-03-02T07:26:23;98531.92;;;8.23;100.00
70488;BME280;57976;48.174;16.370;2024-03-02T07:28:49;98530.43;;;8.26;100.00
70488;BME280;57976;48.174;16.370;2024-03-02T07:31:00;98539.66;;;8.26;100.00
70488;BME280;57976;48.174;16.370;2024-03-02T07:33:06;98544.27;;;8.25;100.00
70488;BME280;57976;48.174;16.370;2024-03-02T07:35:11;98547.06;;;8.21;100.00
70488;BME280;57976;48.174;16.370;2024-03-02T07:37:15;98545.56;;;8.23;100.00
70488;BME280;57976;48.174;16.370;2024-03-02T07:39:23;98548.20;;;8.23;100.00
70488;BME280;57976;48.174;16.370;2024-03-02T07:41:28;98550.30;;;8.22;100.00
70488;BME280;57976;48.174;16.370;2024-03-02T07:43:32;98547.88;;;8.20;100.00
70488;BME280;57976;48.174;16.370;2024-03-02T07:45:37;98546.63;;;8.23;100.00
70488;BME280;57976;48.174;16.370;2024-03-02T07:47:42;98546.87;;;8.24;100.00
70488;BME280;57976;48.174;16.370;2024-03-02T07:49:47;98547.06;;;8.24;100.00
70488;BME280;57976;48.174;16.370;2024-03-02T07:51:52;98550.26;;;8.25;100.00
70488;BME280;57976;48.174;16.370;2024-03-02T07:53:56;98551.48;;;8.19;100.00
70488;BME280;57976;48.174;16.370;2024-03-02T07:56:01;98551.36;;;8.20;100.00
70488;BME280;57976;48.174;16.370;2024-03-02T07:58:09;98554.32;;;8.28;100.00
70488;BME280;57976;48.174;16.370;2024-03-02T08:00:20;98558.70;;;8.35;100.00
70488;BME280;57976;48.174;16.370;2024-03-02T08:02:25;98560.52;;;8.38;100.00
70488;BME280;57976;48.174;16.370;2024-03-02T08:04:32;98560.88;;;8.41;100.00
70488;BME280;57976;48.174;16.370;2024-03-02T08:06:40;98560.80;;;8.45;100.00
70488;BME280;57976;48.174;16.370;2024-03-02T08:08:45;98560.91;;;8.50;100.00
70488;BME280;57976;48.174;16.370;2024-03-02T08:10:51;98561.64;;;8.59;100.00
70488;BME280;57976;48.174;16.370;2024-03-02T08:12:55;98557.29;;;8.68;100.00
70488;BME280;57976;48.174;16.370;2024-03-02T08:15:00;98558.49;;;8.73;100.00
70488;BME280;57976;48.174;16.370;2024-03-02T08:17:05;98560.83;;;8.77;100.00
70488;BME280;57976;48.174;16.370;2024-03-02T08:19:13;98561.66;;;8.85;100.00
70488;BME280;57976;48.174;16.370;2024-03-02T08:21:18;98565.47;;;8.86;100.00
70488;BME280;57976;48.174;16.370;2024-03-02T08:23:23;98563.73;;;8.89;100.00
70488;BME280;57976;48.174;16.370;2024-03-02T08:25:28;98564.42;;;8.93;100.00
70488;BME280;57976;48.174;16.370;2024-03-02T08:27:33;98563.71;;;8.97;100.00
70488;BME280;57976;48.174;16.370;2024-03-02T08:29:38;98557.81;;;9.03;100.00
70488;BME280;57976;48.174;16.370;2024-03-02T08:31:46;98558.20;;;9.09;100.00
70488;BME280;57976;48.174;16.370;2024-03-02T08:33:52;98557.64;;;9.13;100.00
70488;BME280;57976;48.174;16.370;2024-03-02T08:35:57;98556.17;;;9.16;100.00
70488;BME280;57976;48.174;16.370;2024-03-02T08:38:05;98554.77;;;9.15;100.00
70488;BME280;57976;48.174;16.370;2024-03-02T08:40:12;98557.84;;;9.15;100.00
70488;BME280;57976;48.174;16.370;2024-03-02T08:42:21;98549.02;;;9.14;100.00
70488;BME280;57976;48.174;16.370;2024-03-02T08:44:29;98553.80;;;9.15;100.00
70488;BME280;57976;48.174;16.370;2024-03-02T08:46:33;98550.89;;;9.18;100.00
70488;BME280;57976;48.174;16.370;2024-03-02T08:48:38;98554.92;;;9.20;100.00
70488;BME280;57976;48.174;16.370;2024-03-02T08:50:43;98553.36;;;9.23;100.00
70488;BME280;57976;48.174;16.370;2024-03-02T08:52:48;98549.95;;;9.25;100.00
70488;BME280;57976;48.174;16.370;2024-03-02T08:54:53;98551.02;;;9.27;100.00
70488;BME280;57976;48.174;16.370;2024-03-02T08:56:58;98546.09;;;9.30;100.00
70488;BME280;57976;48.174;16.370;2024-03-02T08:59:03;98544.78;;;9.33;100.00
70488;BME280;57976;48.174;16.370;2024-03-02T09:01:10;98550.10;;;9.39;100.00
70488;BME280;57976;48.174;16.370;2024-03-02T09:03:15;98550.31;;;9.45;100.00
70488;BME280;57976;48.174;16.370;2024-03-02T09:05:21;98547.61;;;9.51;100.00
70488;BME280;57976;48.174;16.370;2024-03-02T09:07:26;98550.35;;;9.53;100.00
70488;BME280;57976;48.174;16.370;2024-03-02T09:09:31;98549.08;;;9.58;100.00
70488;BME280;57976;48.174;16.370;2024-03-02T09:11:38;98546.17;;;9.67;100.00
70488;BME280;57976;48.174;16.370;2024-03-02T09:13:43;98543.64;;;9.75;100.00
70488;BME280;57976;48.174;16.370;2024-03-02T09:15:48;98547.09;;;9.83;100.00
70488;BME280;57976;48.174;16.370;2024-03-02T09:17:53;98537.45;;;9.92;100.00
70488;BME280;57976;48.174;16.370;2024-03-02T09:19:58;98536.96;;;10.03;100.00
70488;BME280;57976;48.174;16.370;2024-03-02T09:22:02;98534.30;;;10.12;100.00
70488;BME280;57976;48.174;16.370;2024-03-02T09:24:08;98529.54;;;10.20;100.00
70488;BME280;57976;48.174;16.370;2024-03-02T09:26:16;98530.44;;;10.28;100.00
70488;BME280;57976;48.174;16.370;2024-03-02T09:28:20;98528.86;;;10.36;100.00
70488;BME280;57976;48.174;16.370;2024-03-02T09:30:25;98525.38;;;10.44;100.00
70488;BME280;57976;48.174;16.370;2024-03-02T09:32:30;98526.63;;;10.55;100.00
70488;BME280;57976;48.174;16.370;2024-03-02T09:34:35;98522.86;;;10.62;100.00
70488;BME280;57976;48.174;16.370;2024-03-02T09:36:40;98526.30;;;10.70;100.00
70488;BME280;57976;48.174;16.370;2024-03-02T09:38:46;98530.09;;;10.76;100.00
70488;BME280;57976;48.174;16.370;2024-03-02T09:40:51;98527.86;;;10.82;100.00
70488;BME280;57976;48.174;16.370;2024-03-02T09:42:56;98529.33;;;10.88;100.00
70488;BME280;57976;48.174;16.370;2024-03-02T09:45:01;98526.46;;;10.92;100.00
70488;BME280;57976;48.174;16.370;2024-03-02T09:47:08;98522.95;;;10.98;100.00
70488;BME280;57976;48.174;16.370;2024-03-02T09:49:12;98519.23;;;11.04;100.00
70488;BME280;57976;48.174;16.370;2024-03-02T09:51:17;98519.52;;;11.11;100.00
70488;BME280;57976;48.174;16.370;2024-03-02T09:53:25;98517.09;;;11.21;100.00
70488;BME280;57976;48.174;16.370;2024-03-02T09:55:35;98511.25;;;11.26;100.00
70488;BME280;57976;48.174;16.370;2024-03-02T09:57:40;98512.11;;;11.30;100.00
70488;BME280;57976;48.174;16.370;2024-03-02T09:59:45;98510.95;;;11.34;100.00
70488;BME280;57976;48.174;16.370;2024-03-02T10:02:00;98507.08;;;11.41;100.00
70488;BME280;57976;48.174;16.370;2024-03-02T10:04:06;98506.34;;;11.47;100.00
70488;BME280;57976;48.174;16.370;2024-03-02T10:06:24;98505.52;;;11.52;100.00
70488;BME280;57976;48.174;16.370;2024-03-02T10:08:43;98504.27;;;11.55;100.00
70488;BME280;57976;48.174;16.370;2024-03-02T10:10:48;98502.44;;;11.61;100.00
70488;BME280;57976;48.174;16.370;2024-03-02T10:13:05;98500.37;;;11.66;100.00
70488;BME280;57976;48.174;16.370;2024-03-02T10:15:10;98502.50;;;11.72;100.00
70488;BME280;57976;48.174;16.370;2024-03-02T10:17:16;98507.81;;;11.71;100.00
70488;BME280;57976;48.174;16.370;2024-03-02T10:19:22;98506.11;;;11.73;100.00
70488;BME280;57976;48.174;16.370;2024-03-02T10:21:27;98499.66;;;11.78;100.00
70488;BME280;57976;48.174;16.370;2024-03-02T10:23:33;98500.39;;;11.83;100.00
70488;BME280;57976;48.174;16.370;2024-03-02T10:25:38;98499.54;;;11.90;100.00
70488;BME280;57976;48.174;16.370;2024-03-02T10:27:58;98504.13;;;11.97;100.00
70488;BME280;57976;48.174;16.370;2024-03-02T10:30:07;98502.71;;;11.99;100.00
70488;BME280;57976;48.174;16.370;2024-03-02T10:32:16;98497.79;;;12.01;100.00
70488;BME280;57976;48.174;16.370;2024-03-02T10:34:23;98499.08;;;12.04;100.00
70488;BME280;57976;48.174;16.370;2024-03-02T10:36:28;98500.25;;;12.08;100.00
70488;BME280;57976;48.174;16.370;2024-03-02T10:38:35;98498.98;;;12.08;100.00
70488;BME280;57976;48.174;16.370;2024-03-02T10:40:48;98499.15;;;12.11;100.00
70488;BME280;57976;48.174;16.370;2024-03-02T10:42:55;98498.73;;;12.16;100.00
70488;BME280;57976;48.174;16.370;2024-03-02T10:45:01;98499.31;;;12.18;100.00
70488;BME280;57976;48.174;16.370;2024-03-02T10:47:06;98495.44;;;12.21;100.00
70488;BME280;57976;48.174;16.370;2024-03-02T10:49:12;98493.20;;;12.24;100.00
70488;BME280;57976;48.174;16.370;2024-03-02T10:51:17;98491.92;;;12.29;100.00
70488;BME280;57976;48.174;16.370;2024-03-02T10:53:22;98487.98;;;12.31;100.00
70488;BME280;57976;48.174;16.370;2024-03-02T10:55:27;98488.86;;;12.30;100.00
70488;BME280;57976;48.174;16.370;2024-03-02T10:57:41;98483.69;;;12.32;100.00